Time,TemperatureF,DewpointF,PressureIn,WindDirection,WindDirectionDegrees,WindSpeedMPH,WindSpeedGustMPH,Humidity,HourlyPrecipIn,Conditions,Clouds,dailyrainin,SoftwareType,DateUTC
2013-06-19 00:01:00,56.3,49.9,30.01,North,0,0.0,0.0,79,0.00,,,0.00,WeatherCatV1.15B25,2013-06-19 04:01:00,
2013-06-19 00:02:00,56.2,50.1,30.01,North,0,0.0,0.0,80,0.00,,,0.00,WeatherCatV1.15B25,2013-06-19 04:02:00,
2013-06-19 00:04:00,56.1,50.0,30.01,North,0,0.0,0.0,80,0.00,,,0.00,WeatherCatV1.15B25,2013-06-19 04:04:00,
2013-06-19 00:09:00,55.8,50.1,30.02,North,0,0.0,0.0,81,0.00,,,0.00,WeatherCatV1.15B25,2013-06-19 04:09:00,
2013-06-19 00:14:00,55.6,49.9,30.01,North,0,0.0,0.0,81,0.00,,,0.00,WeatherCatV1.15B25,2013-06-19 04:14:00,
2013-06-19 00:16:00,55.5,49.8,30.02,North,0,0.0,0.0,81,0.00,,,0.00,WeatherCatV1.15B25,2013-06-19 04:16:00,
2013-06-19 00:21:00,55.4,50.0,30.02,North,0,0.0,0.0,82,0.00,,,0.00,WeatherCatV1.15B25,2013-06-19 04:21:00,
2013-06-19 00:26:00,55.3,49.9,30.02,North,0,0.0,0.0,82,0.00,,,0.00,WeatherCatV1.15B25,2013-06-19 04:26:00,
2013-06-19 00:31:00,55.1,50.0,30.02,North,0,0.0,0.0,83,0.00,,,0.00,WeatherCatV1.15B25,2013-06-19 04:31:00,
2013-06-19 00:36:00,54.8,49.7,30.02,North,0,0.0,0.0,83,0.00,,,0.00,WeatherCatV1.15B25,2013-06-19 04:36:00,
2013-06-19 00:41:00,54.6,49.9,30.02,North,0,0.0,0.0,84,0.00,,,0.00,WeatherCatV1.15B25,2013-06-19 04:41:00,
2013-06-19 00:46:00,54.3,49.6,30.03,North,0,0.0,0.0,84,0.00,,,0.00,WeatherCatV1.15B25,2013-06-19 04:46:00,
2013-06-19 00:51:00,54.2,49.5,30.03,North,0,0.0,0.0,84,0.00,,,0.00,WeatherCatV1.15B25,2013-06-19 04:51:00,
2013-06-19 00:56:00,54.0,49.3,30.03,North,0,0.0,0.0,84,0.00,,,0.00,WeatherCatV1.15B25,2013-06-19 04:56:00,
2013-06-19 01:01:00,53.8,49.4,30.03,North,0,0.0,0.0,85,0.00,,,0.00,WeatherCatV1.15B25,2013-06-19 05:01:00,
2013-06-19 01:06:00,53.7,49.3,30.03,North,0,0.0,0.0,85,0.00,,,0.00,WeatherCatV1.15B25,2013-06-19 05:06:00,
2013-06-19 01:11:00,53.7,49.6,30.02,North,0,0.0,0.0,86,0.00,,,0.00,WeatherCatV1.15B25,2013-06-19 05:11:00,
2013-06-19 01:16:00,53.6,49.5,30.03,North,0,0.0,0.0,86,0.00,,,0.00,WeatherCatV1.15B25,2013-06-19 05:16:00,
2013-06-19 01:21:00,53.4,49.3,30.03,North,0,0.0,0.0,86,0.00,,,0.00,WeatherCatV1.15B25,2013-06-19 05:21:00,
2013-06-19 01:26:00,53.4,49.3,30.03,North,0,0.0,0.0,86,0.00,,,0.00,WeatherCatV1.15B25,2013-06-19 05:26:00,
2013-06-19 01:31:00,53.3,49.2,30.02,North,0,0.0,0.0,86,0.00,,,0.00,WeatherCatV1.15B25,2013-06-19 05:31:00,
2013-06-19 01:36:00,53.2,49.4,30.02,North,0,0.0,0.0,87,0.00,,,0.00,WeatherCatV1.15B25,2013-06-19 05:36:00,
2013-06-19 01:41:00,53.2,49.4,30.03,North,0,0.0,0.0,87,0.00,,,0.00,WeatherCatV1.15B25,2013-06-19 05:41:00,
2013-06-19 01:46:00,53.2,49.4,30.02,North,0,0.0,0.0,87,0.00,,,0.00,WeatherCatV1.15B25,2013-06-19 05:46:00,
2013-06-19 01:51:00,53.3,49.5,30.03,North,0,0.0,0.0,87,0.00,,,0.00,WeatherCatV1.15B25,2013-06-19 05:51:00,
2013-06-19 01:56:00,53.5,50.0,30.03,North,0,0.0,0.0,88,0.00,,,0.00,WeatherCatV1.15B25,2013-06-19 05:56:00,
2013-06-19 02:01:00,54.1,50.9,30.02,North,0,0.0,4.0,89,0.00,,,0.00,WeatherCatV1.15B25,2013-06-19 06:01:00,
2013-06-19 02:06:00,54.7,51.2,30.02,NNW,342,1.0,1.0,88,0.00,,,0.00,WeatherCatV1.15B25,2013-06-19 06:06:00,
2013-06-19 02:11:00,55.6,52.4,30.02,NNE,13,0.0,0.0,89,0.00,,,0.00,WeatherCatV1.15B25,2013-06-19 06:11:00,
2013-06-19 02:16:00,56.3,53.1,30.02,NNW,340,0.0,4.0,89,0.00,,,0.00,WeatherCatV1.15B25,2013-06-19 06:16:00,
2013-06-19 02:21:00,57.2,54.0,30.02,NNE,27,0.0,0.0,89,0.00,,,0.00,WeatherCatV1.15B25,2013-06-19 06:21:00,
2013-06-19 02:26:00,58.2,54.7,30.02,NE,56,2.0,3.0,88,0.00,,,0.00,WeatherCatV1.15B25,2013-06-19 06:26:00,
2013-06-19 02:31:00,58.8,54.6,30.02,NNE,20,1.0,5.0,86,0.00,,,0.00,WeatherCatV1.15B25,2013-06-19 06:31:00,
2013-06-19 02:36:00,59.2,54.7,30.03,NNE,20,0.0,0.0,85,0.00,,,0.00,WeatherCatV1.15B25,2013-06-19 06:36:00,
2013-06-19 02:41:00,59.2,54.4,30.03,NNE,29,0.0,1.0,84,0.00,,,0.00,WeatherCatV1.15B25,2013-06-19 06:41:00,
2013-06-19 02:46:00,59.0,53.8,30.03,NNE,29,0.0,0.0,83,0.00,,,0.00,WeatherCatV1.15B25,2013-06-19 06:46:00,
2013-06-19 02:51:00,58.8,53.6,30.03,North,350,0.0,3.0,83,0.00,,,0.00,WeatherCatV1.15B25,2013-06-19 06:51:00,
2013-06-19 02:56:00,58.7,53.5,30.03,NE,38,0.0,1.0,83,0.00,,,0.00,WeatherCatV1.15B25,2013-06-19 06:56:00,
2013-06-19 03:01:00,58.7,53.2,30.03,NNW,329,0.0,0.0,82,0.00,,,0.00,WeatherCatV1.15B25,2013-06-19 07:01:00,
2013-06-19 03:06:00,58.8,52.6,30.03,North,355,0.0,2.0,80,0.00,,,0.00,WeatherCatV1.15B25,2013-06-19 07:06:00,
2013-06-19 03:11:00,58.9,52.4,30.03,NNW,344,0.0,0.0,79,0.00,,,0.00,WeatherCatV1.15B25,2013-06-19 07:11:00,
2013-06-19 03:16:00,58.9,52.0,30.03,NNW,344,0.0,0.0,78,0.00,,,0.00,WeatherCatV1.15B25,2013-06-19 07:16:00,
2013-06-19 03:21:00,58.8,52.0,30.03,NNW,344,0.0,0.0,78,0.00,,,0.00,WeatherCatV1.15B25,2013-06-19 07:21:00,
2013-06-19 03:26:00,58.6,51.8,30.03,NNW,345,0.0,0.0,78,0.00,,,0.00,WeatherCatV1.15B25,2013-06-19 07:26:00,
2013-06-19 03:31:00,58.4,51.6,30.03,NNW,345,0.0,1.0,78,0.00,,,0.00,WeatherCatV1.15B25,2013-06-19 07:31:00,
2013-06-19 03:36:00,58.3,51.5,30.03,NNW,345,0.0,0.0,78,0.00,,,0.00,WeatherCatV1.15B25,2013-06-19 07:36:00,
2013-06-19 03:41:00,58.1,51.6,30.03,NNW,345,0.0,1.0,79,0.00,,,0.00,WeatherCatV1.15B25,2013-06-19 07:41:00,
2013-06-19 03:46:00,58.0,51.5,30.03,North,349,0.0,3.0,79,0.00,,,0.00,WeatherCatV1.15B25,2013-06-19 07:46:00,
2013-06-19 03:51:00,57.9,51.4,30.03,NE,42,0.0,0.0,79,0.00,,,0.00,WeatherCatV1.15B25,2013-06-19 07:51:00,
2013-06-19 03:56:00,57.9,51.4,30.03,NE,43,0.0,0.0,79,0.00,,,0.00,WeatherCatV1.15B25,2013-06-19 07:56:00,
2013-06-19 04:01:00,57.8,51.3,30.03,NE,43,0.0,0.0,79,0.00,,,0.00,WeatherCatV1.15B25,2013-06-19 08:01:00,
2013-06-19 04:06:00,57.5,51.0,30.03,NE,42,0.0,0.0,79,0.00,,,0.00,WeatherCatV1.15B25,2013-06-19 08:06:00,
2013-06-19 04:11:00,57.2,51.1,30.03,NE,43,0.0,0.0,80,0.00,,,0.00,WeatherCatV1.15B25,2013-06-19 08:11:00,
2013-06-19 04:16:00,57.1,51.0,30.04,NE,43,0.0,0.0,80,0.00,,,0.00,WeatherCatV1.15B25,2013-06-19 08:16:00,
2013-06-19 04:21:00,56.9,50.8,30.03,NE,43,0.0,0.0,80,0.00,,,0.00,WeatherCatV1.15B25,2013-06-19 08:21:00,
2013-06-19 04:26:00,56.7,50.9,30.04,NE,43,0.0,0.0,81,0.00,,,0.00,WeatherCatV1.15B25,2013-06-19 08:26:00,
2013-06-19 04:31:00,56.5,50.7,30.04,NE,43,0.0,0.0,81,0.00,,,0.00,WeatherCatV1.15B25,2013-06-19 08:31:00,
2013-06-19 04:36:00,56.4,51.0,30.04,NE,43,0.0,0.0,82,0.00,,,0.00,WeatherCatV1.15B25,2013-06-19 08:36:00,
2013-06-19 04:41:00,56.3,50.9,30.05,NE,42,0.0,0.0,82,0.00,,,0.00,WeatherCatV1.15B25,2013-06-19 08:41:00,
2013-06-19 04:46:00,56.1,51.0,30.05,NE,42,0.0,0.0,83,0.00,,,0.00,WeatherCatV1.15B25,2013-06-19 08:46:00,
2013-06-19 04:51:00,55.8,51.0,30.05,NE,43,0.0,0.0,84,0.00,,,0.00,WeatherCatV1.15B25,2013-06-19 08:51:00,
2013-06-19 04:56:00,55.3,50.5,30.05,NE,43,0.0,0.0,84,0.00,,,0.00,WeatherCatV1.15B25,2013-06-19 08:56:00,
2013-06-19 05:01:00,54.9,50.5,30.05,NE,43,0.0,0.0,85,0.00,,,0.00,WeatherCatV1.15B25,2013-06-19 09:01:00,
2013-06-19 05:06:00,54.7,50.3,30.05,NE,42,0.0,0.0,85,0.00,,,0.00,WeatherCatV1.15B25,2013-06-19 09:06:00,
2013-06-19 05:11:00,54.5,50.4,30.06,NE,43,0.0,0.0,86,0.00,,,0.00,WeatherCatV1.15B25,2013-06-19 09:11:00,
2013-06-19 05:16:00,54.3,50.2,30.06,NE,42,0.0,0.0,86,0.00,,,0.00,WeatherCatV1.15B25,2013-06-19 09:16:00,
2013-06-19 05:21:00,54.0,49.9,30.06,NE,43,0.0,0.0,86,0.00,,,0.00,WeatherCatV1.15B25,2013-06-19 09:21:00,
2013-06-19 05:26:00,53.8,49.7,30.07,NE,43,0.0,0.0,86,0.00,,,0.00,WeatherCatV1.15B25,2013-06-19 09:26:00,
2013-06-19 05:31:00,53.7,49.6,30.07,NE,43,0.0,0.0,86,0.00,,,0.00,WeatherCatV1.15B25,2013-06-19 09:31:00,
2013-06-19 05:36:00,53.5,49.4,30.07,NE,42,0.0,0.0,86,0.00,,,0.00,WeatherCatV1.15B25,2013-06-19 09:36:00,
2013-06-19 05:41:00,53.4,49.3,30.07,NE,42,0.0,0.0,86,0.00,,,0.00,WeatherCatV1.15B25,2013-06-19 09:41:00,
2013-06-19 05:46:00,53.2,49.4,30.07,NE,43,0.0,0.0,87,0.00,,,0.00,WeatherCatV1.15B25,2013-06-19 09:46:00,
2013-06-19 05:51:00,53.1,49.3,30.07,NE,43,0.0,0.0,87,0.00,,,0.00,WeatherCatV1.15B25,2013-06-19 09:51:00,
2013-06-19 05:56:00,52.9,49.1,30.07,NE,43,0.0,0.0,87,0.00,,,0.00,WeatherCatV1.15B25,2013-06-19 09:56:00,
2013-06-19 06:01:00,52.8,49.0,30.07,NE,43,0.0,0.0,87,0.00,,,0.00,WeatherCatV1.15B25,2013-06-19 10:01:00,
2013-06-19 06:06:00,52.6,48.8,30.08,NE,43,0.0,0.0,87,0.00,,,0.00,WeatherCatV1.15B25,2013-06-19 10:06:00,
2013-06-19 06:11:00,52.5,48.7,30.08,NE,43,0.0,0.0,87,0.00,,,0.00,WeatherCatV1.15B25,2013-06-19 10:11:00,
2013-06-19 06:16:00,52.4,49.0,30.08,NE,42,0.0,0.0,88,0.00,,,0.00,WeatherCatV1.15B25,2013-06-19 10:16:00,
2013-06-19 06:21:00,52.3,48.9,30.08,NE,42,0.0,0.0,88,0.00,,,0.00,WeatherCatV1.15B25,2013-06-19 10:21:00,
2013-06-19 06:26:00,52.2,48.8,30.08,NE,43,0.0,0.0,88,0.00,,,0.00,WeatherCatV1.15B25,2013-06-19 10:26:00,
2013-06-19 06:31:00,52.2,48.8,30.08,NE,43,0.0,0.0,88,0.00,,,0.00,WeatherCatV1.15B25,2013-06-19 10:31:00,
2013-06-19 06:36:00,52.2,48.8,30.08,NE,42,0.0,0.0,88,0.00,,,0.00,WeatherCatV1.15B25,2013-06-19 10:36:00,
2013-06-19 06:41:00,52.2,49.1,30.08,NE,42,0.0,0.0,89,0.00,,,0.00,WeatherCatV1.15B25,2013-06-19 10:41:00,
2013-06-19 06:46:00,52.2,49.1,30.08,NE,43,0.0,0.0,89,0.00,,,0.00,WeatherCatV1.15B25,2013-06-19 10:46:00,
2013-06-19 06:51:00,52.3,49.2,30.08,NE,42,0.0,0.0,89,0.00,,,0.00,WeatherCatV1.15B25,2013-06-19 10:51:00,
2013-06-19 06:56:00,52.5,49.4,30.08,NE,43,0.0,0.0,89,0.00,,,0.00,WeatherCatV1.15B25,2013-06-19 10:56:00,
2013-06-19 07:01:00,52.7,49.5,30.08,NE,43,0.0,0.0,89,0.00,,,0.00,WeatherCatV1.15B25,2013-06-19 11:01:00,
2013-06-19 07:06:00,53.0,49.8,30.09,NE,43,0.0,0.0,89,0.00,,,0.00,WeatherCatV1.15B25,2013-06-19 11:06:00,
2013-06-19 07:11:00,53.2,50.3,30.09,NE,42,0.0,0.0,90,0.00,,,0.00,WeatherCatV1.15B25,2013-06-19 11:11:00,
2013-06-19 07:16:00,53.6,50.7,30.09,NE,43,0.0,0.0,90,0.00,,,0.00,WeatherCatV1.15B25,2013-06-19 11:16:00,
2013-06-19 07:21:00,53.8,50.9,30.09,NE,43,0.0,0.0,90,0.00,,,0.00,WeatherCatV1.15B25,2013-06-19 11:21:00,
2013-06-19 07:26:00,54.1,51.2,30.09,NE,43,0.0,0.0,90,0.00,,,0.00,WeatherCatV1.15B25,2013-06-19 11:26:00,
2013-06-19 07:31:00,54.5,51.6,30.09,NE,42,0.0,1.0,90,0.00,,,0.00,WeatherCatV1.15B25,2013-06-19 11:31:00,
2013-06-19 07:36:00,55.1,52.2,30.09,NE,42,0.0,0.0,90,0.00,,,0.00,WeatherCatV1.15B25,2013-06-19 11:36:00,
2013-06-19 07:41:00,55.6,52.7,30.09,NE,43,0.0,0.0,90,0.00,,,0.00,WeatherCatV1.15B25,2013-06-19 11:41:00,
2013-06-19 07:46:00,56.2,53.3,30.10,NE,43,0.0,1.0,90,0.00,,,0.00,WeatherCatV1.15B25,2013-06-19 11:46:00,
2013-06-19 07:51:00,56.9,54.0,30.10,North,0,0.0,3.0,90,0.00,,,0.00,WeatherCatV1.15B25,2013-06-19 11:51:00,
2013-06-19 07:56:00,57.9,54.7,30.10,ENE,59,2.0,3.0,89,0.00,,,0.00,WeatherCatV1.15B25,2013-06-19 11:56:00,
2013-06-19 08:01:00,58.8,55.3,30.10,ENE,71,0.0,2.0,88,0.00,,,0.00,WeatherCatV1.15B25,2013-06-19 12:01:00,
2013-06-19 08:07:00,60.1,55.9,30.10,NNE,13,1.0,3.0,86,0.00,,,0.00,WeatherCatV1.15B25,2013-06-19 12:07:00,
2013-06-19 08:12:00,61.1,55.9,30.11,North,0,0.0,5.0,83,0.00,,,0.00,WeatherCatV1.15B25,2013-06-19 12:12:00,
2013-06-19 08:17:00,62.0,56.1,30.10,NNE,29,1.0,4.0,81,0.00,,,0.00,WeatherCatV1.15B25,2013-06-19 12:17:00,
2013-06-19 08:22:00,62.6,55.6,30.11,North,5,0.0,4.0,78,0.00,,,0.00,WeatherCatV1.15B25,2013-06-19 12:22:00,
2013-06-19 08:27:00,63.0,55.7,30.11,NNW,348,3.0,4.0,77,0.00,,,0.00,WeatherCatV1.15B25,2013-06-19 12:27:00,
2013-06-19 08:32:00,63.4,55.7,30.11,NE,51,1.0,2.0,76,0.00,,,0.00,WeatherCatV1.15B25,2013-06-19 12:32:00,
2013-06-19 08:37:00,63.8,55.3,30.11,ENE,64,0.0,3.0,74,0.00,,,0.00,WeatherCatV1.15B25,2013-06-19 12:37:00,
2013-06-19 08:42:00,64.0,55.2,30.12,North,0,3.0,3.0,73,0.00,,,0.00,WeatherCatV1.15B25,2013-06-19 12:42:00,
2013-06-19 08:47:00,64.3,55.5,30.11,North,0,1.0,2.0,73,0.00,,,0.00,WeatherCatV1.15B25,2013-06-19 12:47:00,
2013-06-19 08:52:00,64.9,56.0,30.12,NNE,14,2.0,5.0,73,0.00,,,0.00,WeatherCatV1.15B25,2013-06-19 12:52:00,
2013-06-19 08:57:00,64.8,55.2,30.12,NNE,18,2.0,5.0,71,0.00,,,0.00,WeatherCatV1.15B25,2013-06-19 12:57:00,
2013-06-19 09:02:00,64.7,55.5,30.12,NE,47,0.0,5.0,72,0.00,,,0.00,WeatherCatV1.15B25,2013-06-19 13:02:00,
2013-06-19 09:07:00,64.5,54.9,30.12,North,349,0.0,7.0,71,0.00,,,0.00,WeatherCatV1.15B25,2013-06-19 13:07:00,
2013-06-19 09:12:00,64.5,55.3,30.13,NNW,338,0.0,1.0,72,0.00,,,0.00,WeatherCatV1.15B25,2013-06-19 13:12:00,
2013-06-19 09:17:00,64.8,55.6,30.13,North,355,2.0,7.0,72,0.00,,,0.00,WeatherCatV1.15B25,2013-06-19 13:17:00,
2013-06-19 09:22:00,64.5,54.9,30.13,NNE,25,0.0,0.0,71,0.00,,,0.00,WeatherCatV1.15B25,2013-06-19 13:22:00,
2013-06-19 09:27:00,64.8,55.6,30.13,NNW,348,0.0,4.0,72,0.00,,,0.00,WeatherCatV1.15B25,2013-06-19 13:27:00,
2013-06-19 09:32:00,64.9,55.7,30.13,North,355,1.0,4.0,72,0.00,,,0.00,WeatherCatV1.15B25,2013-06-19 13:32:00,
2013-06-19 09:37:00,65.0,56.1,30.13,ENE,61,0.0,0.0,73,0.00,,,0.00,WeatherCatV1.15B25,2013-06-19 13:37:00,
2013-06-19 09:42:00,65.0,55.4,30.13,ENE,74,0.0,4.0,71,0.00,,,0.00,WeatherCatV1.15B25,2013-06-19 13:42:00,
2013-06-19 09:47:00,65.3,56.4,30.13,NNE,27,0.0,2.0,73,0.00,,,0.00,WeatherCatV1.15B25,2013-06-19 13:47:00,
2013-06-19 09:52:00,65.4,56.5,30.13,NNE,15,1.0,5.0,73,0.00,,,0.00,WeatherCatV1.15B25,2013-06-19 13:52:00,
2013-06-19 09:57:00,65.4,56.1,30.13,NNW,336,4.0,8.0,72,0.00,,,0.00,WeatherCatV1.15B25,2013-06-19 13:57:00,
2013-06-19 10:02:00,65.1,56.2,30.14,North,0,4.0,5.0,73,0.00,,,0.00,WeatherCatV1.15B25,2013-06-19 14:02:00,
2013-06-19 10:07:00,64.6,56.1,30.13,NNE,18,0.0,2.0,74,0.00,,,0.00,WeatherCatV1.15B25,2013-06-19 14:07:00,
2013-06-19 10:12:00,65.1,57.0,30.13,North,355,0.0,6.0,75,0.00,,,0.00,WeatherCatV1.15B25,2013-06-19 14:12:00,
2013-06-19 10:17:00,65.6,56.7,30.13,ENE,72,1.0,3.0,73,0.00,,,0.00,WeatherCatV1.15B25,2013-06-19 14:17:00,
2013-06-19 10:22:00,66.3,57.0,30.13,North,355,5.0,7.0,72,0.00,,,0.00,WeatherCatV1.15B25,2013-06-19 14:22:00,
2013-06-19 10:27:00,65.7,56.8,30.13,NE,42,1.0,1.0,73,0.00,,,0.00,WeatherCatV1.15B25,2013-06-19 14:27:00,
2013-06-19 10:32:00,66.0,57.1,30.13,North,0,0.0,4.0,73,0.00,,,0.00,WeatherCatV1.15B25,2013-06-19 14:32:00,
2013-06-19 10:37:00,66.2,57.3,30.13,NNE,29,2.0,4.0,73,0.00,,,0.00,WeatherCatV1.15B25,2013-06-19 14:37:00,
2013-06-19 10:42:00,65.6,55.9,30.13,North,0,4.0,7.0,71,0.00,,,0.00,WeatherCatV1.15B25,2013-06-19 14:42:00,
2013-06-19 10:47:00,65.5,56.2,30.13,North,0,6.0,7.0,72,0.00,,,0.00,WeatherCatV1.15B25,2013-06-19 14:47:00,
2013-06-19 10:52:00,65.5,56.2,30.13,North,11,1.0,4.0,72,0.00,,,0.00,WeatherCatV1.15B25,2013-06-19 14:52:00,
2013-06-19 10:57:00,65.8,56.9,30.13,ENE,57,4.0,4.0,73,0.00,,,0.00,WeatherCatV1.15B25,2013-06-19 14:57:00,
2013-06-19 11:02:00,65.8,56.1,30.13,NNW,340,4.0,5.0,71,0.00,,,0.00,WeatherCatV1.15B25,2013-06-19 15:02:00,
2013-06-19 11:07:00,65.7,55.2,30.13,North,9,4.0,10.0,69,0.00,,,0.00,WeatherCatV1.15B25,2013-06-19 15:07:00,
2013-06-19 11:12:00,65.3,55.6,30.13,NNE,13,4.0,5.0,71,0.00,,,0.00,WeatherCatV1.15B25,2013-06-19 15:12:00,
2013-06-19 11:17:00,65.9,56.2,30.13,SW,232,0.0,7.0,71,0.00,,,0.00,WeatherCatV1.15B25,2013-06-19 15:17:00,
2013-06-19 11:22:00,65.9,57.4,30.13,North,355,1.0,1.0,74,0.00,,,0.00,WeatherCatV1.15B25,2013-06-19 15:22:00,
2013-06-19 11:27:00,65.9,56.2,30.13,NW,318,2.0,6.0,71,0.00,,,0.00,WeatherCatV1.15B25,2013-06-19 15:27:00,
2013-06-19 11:32:00,66.0,56.3,30.13,NE,54,0.0,10.0,71,0.00,,,0.00,WeatherCatV1.15B25,2013-06-19 15:32:00,
2013-06-19 11:37:00,66.4,56.7,30.13,NNW,348,0.0,0.0,71,0.00,,,0.00,WeatherCatV1.15B25,2013-06-19 15:37:00,
2013-06-19 11:42:00,67.0,57.7,30.13,North,10,0.0,3.0,72,0.00,,,0.00,WeatherCatV1.15B25,2013-06-19 15:42:00,
2013-06-19 11:47:00,67.4,57.3,30.13,NNW,333,5.0,5.0,70,0.00,,,0.00,WeatherCatV1.15B25,2013-06-19 15:47:00,
2013-06-19 11:52:00,66.5,56.4,30.14,NNW,344,0.0,10.0,70,0.00,,,0.00,WeatherCatV1.15B25,2013-06-19 15:52:00,
2013-06-19 11:57:00,65.7,54.8,30.14,NNE,28,0.0,6.0,68,0.00,,,0.00,WeatherCatV1.15B25,2013-06-19 15:57:00,
2013-06-19 12:02:00,66.2,57.3,30.14,North,355,5.0,7.0,73,0.00,,,0.00,WeatherCatV1.15B25,2013-06-19 16:02:00,
2013-06-19 12:07:00,66.0,57.8,30.14,NNE,15,0.0,2.0,75,0.00,,,0.00,WeatherCatV1.15B25,2013-06-19 16:07:00,
2013-06-19 12:12:00,66.3,56.6,30.14,North,349,4.0,6.0,71,0.00,,,0.00,WeatherCatV1.15B25,2013-06-19 16:12:00,
2013-06-19 12:17:00,67.0,57.3,30.14,NNE,14,0.0,6.0,71,0.00,,,0.00,WeatherCatV1.15B25,2013-06-19 16:17:00,
2013-06-19 12:22:00,67.1,57.0,30.14,NE,45,2.0,6.0,70,0.00,,,0.00,WeatherCatV1.15B25,2013-06-19 16:22:00,
2013-06-19 12:27:00,67.3,56.8,30.14,NE,36,0.0,7.0,69,0.00,,,0.00,WeatherCatV1.15B25,2013-06-19 16:27:00,
2013-06-19 12:32:00,67.4,58.4,30.14,North,5,0.0,0.0,73,0.00,,,0.00,WeatherCatV1.15B25,2013-06-19 16:32:00,
2013-06-19 12:37:00,66.8,56.3,30.14,NNW,331,2.0,6.0,69,0.00,,,0.00,WeatherCatV1.15B25,2013-06-19 16:37:00,
2013-06-19 12:42:00,66.3,57.0,30.14,NNE,21,2.0,4.0,72,0.00,,,0.00,WeatherCatV1.15B25,2013-06-19 16:42:00,
2013-06-19 12:47:00,67.0,57.7,30.15,NE,42,1.0,2.0,72,0.00,,,0.00,WeatherCatV1.15B25,2013-06-19 16:47:00,
2013-06-19 12:52:00,66.2,55.7,30.14,NNW,344,5.0,9.0,69,0.00,,,0.00,WeatherCatV1.15B25,2013-06-19 16:52:00,
2013-06-19 12:57:00,65.6,55.1,30.15,North,0,0.0,9.0,69,0.00,,,0.00,WeatherCatV1.15B25,2013-06-19 16:57:00,
2013-06-19 13:02:00,65.4,56.5,30.15,NNE,32,3.0,4.0,73,0.00,,,0.00,WeatherCatV1.15B25,2013-06-19 17:02:00,
2013-06-19 13:07:00,66.5,57.2,30.15,North,0,1.0,5.0,72,0.00,,,0.00,WeatherCatV1.15B25,2013-06-19 17:07:00,
2013-06-19 13:12:00,66.8,57.1,30.15,NNW,337,0.0,5.0,71,0.00,,,0.00,WeatherCatV1.15B25,2013-06-19 17:12:00,
2013-06-19 13:17:00,67.6,57.1,30.15,NE,52,2.0,6.0,69,0.00,,,0.00,WeatherCatV1.15B25,2013-06-19 17:17:00,
2013-06-19 13:22:00,67.1,57.4,30.15,East,79,2.0,5.0,71,0.00,,,0.00,WeatherCatV1.15B25,2013-06-19 17:22:00,
2013-06-19 13:27:00,66.8,56.7,30.15,North,0,0.0,4.0,70,0.00,,,0.00,WeatherCatV1.15B25,2013-06-19 17:27:00,
2013-06-19 13:32:00,66.2,55.7,30.15,NW,322,2.0,7.0,69,0.00,,,0.00,WeatherCatV1.15B25,2013-06-19 17:32:00,
2013-06-19 13:37:00,66.1,56.0,30.15,North,355,0.0,6.0,70,0.00,,,0.00,WeatherCatV1.15B25,2013-06-19 17:37:00,
2013-06-19 13:42:00,66.4,57.1,30.15,NNE,13,5.0,6.0,72,0.00,,,0.00,WeatherCatV1.15B25,2013-06-19 17:42:00,
2013-06-19 13:47:00,67.2,57.5,30.15,North,0,5.0,7.0,71,0.00,,,0.00,WeatherCatV1.15B25,2013-06-19 17:47:00,
2013-06-19 13:52:00,66.6,56.1,30.14,NNW,333,3.0,7.0,69,0.00,,,0.00,WeatherCatV1.15B25,2013-06-19 17:52:00,
2013-06-19 13:57:00,66.3,56.6,30.14,NE,45,0.0,6.0,71,0.00,,,0.00,WeatherCatV1.15B25,2013-06-19 17:57:00,
2013-06-19 14:02:00,66.1,56.0,30.14,North,355,2.0,9.0,70,0.00,,,0.00,WeatherCatV1.15B25,2013-06-19 18:02:00,
2013-06-19 14:07:00,65.9,55.8,30.14,North,355,6.0,6.0,70,0.00,,,0.00,WeatherCatV1.15B25,2013-06-19 18:07:00,
2013-06-19 14:12:00,66.1,56.8,30.14,North,5,2.0,6.0,72,0.00,,,0.00,WeatherCatV1.15B25,2013-06-19 18:12:00,
2013-06-19 14:17:00,66.5,57.2,30.14,NE,55,3.0,6.0,72,0.00,,,0.00,WeatherCatV1.15B25,2013-06-19 18:17:00,
2013-06-19 14:22:00,66.6,56.9,30.14,North,355,4.0,7.0,71,0.00,,,0.00,WeatherCatV1.15B25,2013-06-19 18:22:00,
2013-06-19 14:27:00,66.7,56.6,30.14,NNW,334,3.0,3.0,70,0.00,,,0.00,WeatherCatV1.15B25,2013-06-19 18:27:00,
2013-06-19 14:32:00,67.1,57.0,30.14,NNW,333,4.0,5.0,70,0.00,,,0.00,WeatherCatV1.15B25,2013-06-19 18:32:00,
2013-06-19 14:37:00,67.2,56.3,30.14,NNW,346,2.0,10.0,68,0.00,,,0.00,WeatherCatV1.15B25,2013-06-19 18:37:00,
2013-06-19 14:42:00,65.9,54.6,30.14,NNW,346,0.0,11.0,67,0.00,,,0.00,WeatherCatV1.15B25,2013-06-19 18:42:00,
2013-06-19 14:47:00,66.9,56.4,30.14,North,9,1.0,10.0,69,0.00,,,0.00,WeatherCatV1.15B25,2013-06-19 18:47:00,
2013-06-19 14:52:00,66.2,54.1,30.14,NNE,12,1.0,6.0,65,0.00,,,0.00,WeatherCatV1.15B25,2013-06-19 18:52:00,
2013-06-19 14:57:00,66.9,54.7,30.14,North,349,3.0,5.0,65,0.00,,,0.00,WeatherCatV1.15B25,2013-06-19 18:57:00,
2013-06-19 15:02:00,66.6,51.8,30.14,ENE,60,7.0,7.0,59,0.00,,,0.00,WeatherCatV1.15B25,2013-06-19 19:02:00,
2013-06-19 15:07:00,67.5,54.9,30.14,NW,316,3.0,10.0,64,0.00,,,0.00,WeatherCatV1.15B25,2013-06-19 19:07:00,
2013-06-19 15:12:00,66.4,52.1,30.14,NW,323,1.0,11.0,60,0.00,,,0.00,WeatherCatV1.15B25,2013-06-19 19:12:00,
2013-06-19 15:17:00,66.3,53.3,30.14,NNW,347,4.0,6.0,63,0.00,,,0.00,WeatherCatV1.15B25,2013-06-19 19:17:00,
2013-06-19 15:22:00,67.6,53.7,30.13,ENE,59,1.0,5.0,61,0.00,,,0.00,WeatherCatV1.15B25,2013-06-19 19:22:00,
2013-06-19 15:27:00,67.7,54.2,30.13,NNE,32,5.0,5.0,62,0.00,,,0.00,WeatherCatV1.15B25,2013-06-19 19:27:00,
2013-06-19 15:32:00,67.7,54.6,30.13,ENE,68,2.0,6.0,63,0.00,,,0.00,WeatherCatV1.15B25,2013-06-19 19:32:00,
2013-06-19 15:37:00,67.4,51.1,30.13,NNW,342,0.0,7.0,56,0.00,,,0.00,WeatherCatV1.15B25,2013-06-19 19:37:00,
2013-06-19 15:42:00,67.2,51.0,30.13,NNW,342,2.0,5.0,56,0.00,,,0.00,WeatherCatV1.15B25,2013-06-19 19:42:00,
2013-06-19 15:47:00,67.7,51.4,30.12,North,350,0.0,4.0,56,0.00,,,0.00,WeatherCatV1.15B25,2013-06-19 19:47:00,
2013-06-19 15:52:00,68.0,50.7,30.13,NNW,340,5.0,9.0,54,0.00,,,0.00,WeatherCatV1.15B25,2013-06-19 19:52:00,
2013-06-19 15:57:00,67.5,50.8,30.12,NNE,31,0.0,4.0,55,0.00,,,0.00,WeatherCatV1.15B25,2013-06-19 19:57:00,
2013-06-19 16:02:00,68.7,51.4,30.12,NE,43,0.0,0.0,54,0.00,,,0.00,WeatherCatV1.15B25,2013-06-19 20:02:00,
2013-06-19 16:08:00,68.6,50.3,30.12,North,9,1.0,3.0,52,0.00,,,0.00,WeatherCatV1.15B25,2013-06-19 20:08:00,
2013-06-19 16:13:00,68.7,50.9,30.12,NNE,28,0.0,7.0,53,0.00,,,0.00,WeatherCatV1.15B25,2013-06-19 20:13:00,
2013-06-19 16:18:00,68.8,48.3,30.12,ENE,64,3.0,6.0,48,0.00,,,0.00,WeatherCatV1.15B25,2013-06-19 20:18:00,
2013-06-19 16:23:00,68.2,48.8,30.13,NNW,334,6.0,7.0,50,0.00,,,0.00,WeatherCatV1.15B25,2013-06-19 20:23:00,
2013-06-19 16:28:00,67.9,49.1,30.13,NNW,347,0.0,7.0,51,0.00,,,0.00,WeatherCatV1.15B25,2013-06-19 20:28:00,
2013-06-19 16:33:00,67.7,48.9,30.12,NNW,340,0.0,4.0,51,0.00,,,0.00,WeatherCatV1.15B25,2013-06-19 20:33:00,
2013-06-19 16:38:00,67.8,49.0,30.13,ENE,71,2.0,4.0,51,0.00,,,0.00,WeatherCatV1.15B25,2013-06-19 20:38:00,
2013-06-19 16:43:00,68.2,49.4,30.13,NE,53,2.0,5.0,51,0.00,,,0.00,WeatherCatV1.15B25,2013-06-19 20:43:00,
2013-06-19 16:48:00,68.1,47.7,30.13,NE,46,0.0,5.0,48,0.00,,,0.00,WeatherCatV1.15B25,2013-06-19 20:48:00,
2013-06-19 16:53:00,67.8,46.3,30.12,NE,51,4.0,9.0,46,0.00,,,0.00,WeatherCatV1.15B25,2013-06-19 20:53:00,
2013-06-19 16:58:00,67.9,45.8,30.12,SSE,155,2.0,4.0,45,0.00,,,0.00,WeatherCatV1.15B25,2013-06-19 20:58:00,
2013-06-19 17:03:00,68.3,47.8,30.12,NNW,343,7.0,7.0,48,0.00,,,0.00,WeatherCatV1.15B25,2013-06-19 21:03:00,
2013-06-19 17:08:00,68.3,46.7,30.13,NNW,346,0.0,5.0,46,0.00,,,0.00,WeatherCatV1.15B25,2013-06-19 21:08:00,
2013-06-19 17:13:00,68.2,46.0,30.13,North,11,1.0,4.0,45,0.00,,,0.00,WeatherCatV1.15B25,2013-06-19 21:13:00,
2013-06-19 17:18:00,68.2,46.0,30.12,ENE,57,0.0,2.0,45,0.00,,,0.00,WeatherCatV1.15B25,2013-06-19 21:18:00,
2013-06-19 17:23:00,68.2,46.0,30.12,NNE,15,0.0,3.0,45,0.00,,,0.00,WeatherCatV1.15B25,2013-06-19 21:23:00,
2013-06-19 17:28:00,68.4,45.6,30.12,ENE,72,0.0,5.0,44,0.00,,,0.00,WeatherCatV1.15B25,2013-06-19 21:28:00,
2013-06-19 17:33:00,68.6,48.1,30.12,NNE,17,0.0,1.0,48,0.00,,,0.00,WeatherCatV1.15B25,2013-06-19 21:33:00,
2013-06-19 17:38:00,69.4,47.1,30.11,NE,53,0.0,2.0,45,0.00,,,0.00,WeatherCatV1.15B25,2013-06-19 21:38:00,
2013-06-19 17:43:00,69.5,47.8,30.12,NE,45,0.0,0.0,46,0.00,,,0.00,WeatherCatV1.15B25,2013-06-19 21:43:00,
2013-06-19 17:48:00,69.2,45.7,30.12,North,5,0.0,4.0,43,0.00,,,0.00,WeatherCatV1.15B25,2013-06-19 21:48:00,
2013-06-19 17:53:00,68.6,45.2,30.12,NNE,14,1.0,9.0,43,0.00,,,0.00,WeatherCatV1.15B25,2013-06-19 21:53:00,
2013-06-19 17:58:00,68.4,46.2,30.12,NNW,344,0.0,6.0,45,0.00,,,0.00,WeatherCatV1.15B25,2013-06-19 21:58:00,
2013-06-19 18:03:00,68.7,47.6,30.12,ENE,70,0.0,3.0,47,0.00,,,0.00,WeatherCatV1.15B25,2013-06-19 22:03:00,
2013-06-19 18:08:00,68.8,46.0,30.12,NNW,336,0.0,7.0,44,0.00,,,0.00,WeatherCatV1.15B25,2013-06-19 22:08:00,
2013-06-19 18:13:00,69.0,47.3,30.12,NE,43,1.0,5.0,46,0.00,,,0.00,WeatherCatV1.15B25,2013-06-19 22:13:00,
2013-06-19 18:18:00,68.7,45.3,30.12,NNW,346,2.0,5.0,43,0.00,,,0.00,WeatherCatV1.15B25,2013-06-19 22:18:00,
2013-06-19 18:23:00,68.5,46.9,30.12,NNE,28,0.0,1.0,46,0.00,,,0.00,WeatherCatV1.15B25,2013-06-19 22:23:00,
2013-06-19 18:28:00,68.6,46.4,30.12,ENE,74,0.0,0.0,45,0.00,,,0.00,WeatherCatV1.15B25,2013-06-19 22:28:00,
2013-06-19 18:33:00,68.7,47.6,30.12,NNE,29,0.0,3.0,47,0.00,,,0.00,WeatherCatV1.15B25,2013-06-19 22:33:00,
2013-06-19 18:38:00,68.6,47.0,30.12,NNE,24,0.0,1.0,46,0.00,,,0.00,WeatherCatV1.15B25,2013-06-19 22:38:00,
2013-06-19 18:43:00,68.5,45.7,30.11,North,351,1.0,3.0,44,0.00,,,0.00,WeatherCatV1.15B25,2013-06-19 22:43:00,
2013-06-19 18:48:00,68.3,46.1,30.12,NNE,26,0.0,7.0,45,0.00,,,0.00,WeatherCatV1.15B25,2013-06-19 22:48:00,
2013-06-19 18:53:00,68.0,45.9,30.12,ENE,68,1.0,4.0,45,0.00,,,0.00,WeatherCatV1.15B25,2013-06-19 22:53:00,
2013-06-19 18:58:00,68.0,47.0,30.12,North,349,2.0,3.0,47,0.00,,,0.00,WeatherCatV1.15B25,2013-06-19 22:58:00,
2013-06-19 19:03:00,68.1,47.1,30.11,NE,38,0.0,3.0,47,0.00,,,0.00,WeatherCatV1.15B25,2013-06-19 23:03:00,
2013-06-19 19:08:00,68.1,48.2,30.11,North,0,1.0,3.0,49,0.00,,,0.00,WeatherCatV1.15B25,2013-06-19 23:08:00,
2013-06-19 19:13:00,67.9,46.3,30.11,NE,40,0.0,5.0,46,0.00,,,0.00,WeatherCatV1.15B25,2013-06-19 23:13:00,
2013-06-19 19:18:00,67.9,47.5,30.11,North,5,0.0,4.0,48,0.00,,,0.00,WeatherCatV1.15B25,2013-06-19 23:18:00,
2013-06-19 19:23:00,67.3,45.8,30.11,NE,44,0.0,3.0,46,0.00,,,0.00,WeatherCatV1.15B25,2013-06-19 23:23:00,
2013-06-19 19:28:00,66.7,45.8,30.11,North,349,3.0,3.0,47,0.00,,,0.00,WeatherCatV1.15B25,2013-06-19 23:28:00,
2013-06-19 19:33:00,66.4,46.7,30.11,North,355,0.0,0.0,49,0.00,,,0.00,WeatherCatV1.15B25,2013-06-19 23:33:00,
2013-06-19 19:38:00,66.1,46.4,30.11,North,355,0.0,1.0,49,0.00,,,0.00,WeatherCatV1.15B25,2013-06-19 23:38:00,
2013-06-19 19:43:00,66.0,47.3,30.12,North,10,0.0,0.0,51,0.00,,,0.00,WeatherCatV1.15B25,2013-06-19 23:43:00,
2013-06-19 19:48:00,65.9,47.3,30.12,NNW,331,0.0,3.0,51,0.00,,,0.00,WeatherCatV1.15B25,2013-06-19 23:48:00,
2013-06-19 19:53:00,65.8,48.2,30.12,NNE,18,0.0,0.0,53,0.00,,,0.00,WeatherCatV1.15B25,2013-06-19 23:53:00,
2013-06-19 19:58:00,65.6,47.5,30.12,NNE,18,2.0,3.0,52,0.00,,,0.00,WeatherCatV1.15B25,2013-06-19 23:58:00,
2013-06-19 20:03:00,65.5,48.4,30.11,North,355,0.0,0.0,54,0.00,,,0.00,WeatherCatV1.15B25,2013-06-20 00:03:00,
2013-06-19 20:08:00,65.2,48.1,30.11,North,355,0.0,0.0,54,0.00,,,0.00,WeatherCatV1.15B25,2013-06-20 00:08:00,
2013-06-19 20:13:00,64.9,48.3,30.11,North,355,0.0,0.0,55,0.00,,,0.00,WeatherCatV1.15B25,2013-06-20 00:13:00,
2013-06-19 20:18:00,64.6,48.1,30.11,North,355,0.0,0.0,55,0.00,,,0.00,WeatherCatV1.15B25,2013-06-20 00:18:00,
2013-06-19 20:23:00,64.4,47.9,30.11,North,10,2.0,2.0,55,0.00,,,0.00,WeatherCatV1.15B25,2013-06-20 00:23:00,
2013-06-19 20:28:00,64.2,47.2,30.11,NE,41,1.0,2.0,54,0.00,,,0.00,WeatherCatV1.15B25,2013-06-20 00:28:00,
2013-06-19 20:33:00,64.1,47.1,30.11,North,355,0.0,1.0,54,0.00,,,0.00,WeatherCatV1.15B25,2013-06-20 00:33:00,
2013-06-19 20:38:00,64.0,47.0,30.12,North,355,0.0,0.0,54,0.00,,,0.00,WeatherCatV1.15B25,2013-06-20 00:38:00,
2013-06-19 20:43:00,63.8,47.8,30.11,North,355,0.0,0.0,56,0.00,,,0.00,WeatherCatV1.15B25,2013-06-20 00:43:00,
2013-06-19 20:48:00,63.4,47.4,30.11,North,355,0.0,0.0,56,0.00,,,0.00,WeatherCatV1.15B25,2013-06-20 00:48:00,
2013-06-19 20:53:00,63.1,47.1,30.12,North,355,0.0,0.0,56,0.00,,,0.00,WeatherCatV1.15B25,2013-06-20 00:53:00,
2013-06-19 20:58:00,62.6,47.6,30.12,North,355,0.0,0.0,58,0.00,,,0.00,WeatherCatV1.15B25,2013-06-20 00:58:00,
2013-06-19 21:03:00,62.2,47.7,30.12,North,355,0.0,0.0,59,0.00,,,0.00,WeatherCatV1.15B25,2013-06-20 01:03:00,
2013-06-19 21:08:00,61.8,47.3,30.12,North,355,0.0,0.0,59,0.00,,,0.00,WeatherCatV1.15B25,2013-06-20 01:08:00,
2013-06-19 21:13:00,61.5,47.5,30.12,North,355,0.0,0.0,60,0.00,,,0.00,WeatherCatV1.15B25,2013-06-20 01:13:00,
2013-06-19 21:18:00,61.1,47.5,30.12,North,355,0.0,0.0,61,0.00,,,0.00,WeatherCatV1.15B25,2013-06-20 01:18:00,
2013-06-19 21:23:00,60.7,48.0,30.12,North,355,0.0,0.0,63,0.00,,,0.00,WeatherCatV1.15B25,2013-06-20 01:23:00,
2013-06-19 21:28:00,60.4,48.2,30.12,North,355,0.0,0.0,64,0.00,,,0.00,WeatherCatV1.15B25,2013-06-20 01:28:00,
2013-06-19 21:33:00,60.0,48.2,30.12,North,355,0.0,0.0,65,0.00,,,0.00,WeatherCatV1.15B25,2013-06-20 01:33:00,
2013-06-19 21:38:00,59.6,48.2,30.12,North,355,0.0,0.0,66,0.00,,,0.00,WeatherCatV1.15B25,2013-06-20 01:38:00,
2013-06-19 21:43:00,59.3,48.3,30.13,North,355,0.0,0.0,67,0.00,,,0.00,WeatherCatV1.15B25,2013-06-20 01:43:00,
2013-06-19 21:48:00,59.0,48.5,30.13,North,355,0.0,0.0,68,0.00,,,0.00,WeatherCatV1.15B25,2013-06-20 01:48:00,
2013-06-19 21:53:00,58.7,48.2,30.13,North,355,0.0,0.0,68,0.00,,,0.00,WeatherCatV1.15B25,2013-06-20 01:53:00,
2013-06-19 21:58:00,58.5,48.0,30.13,North,355,0.0,0.0,68,0.00,,,0.00,WeatherCatV1.15B25,2013-06-20 01:58:00,
2013-06-19 22:03:00,58.3,48.6,30.14,North,355,0.0,0.0,70,0.00,,,0.00,WeatherCatV1.15B25,2013-06-20 02:03:00,
2013-06-19 22:08:00,57.9,48.2,30.14,North,355,0.0,0.0,70,0.00,,,0.00,WeatherCatV1.15B25,2013-06-20 02:08:00,
2013-06-19 22:13:00,57.6,48.3,30.14,North,355,0.0,0.0,71,0.00,,,0.00,WeatherCatV1.15B25,2013-06-20 02:13:00,
2013-06-19 22:18:00,57.3,48.3,30.14,North,355,0.0,0.0,72,0.00,,,0.00,WeatherCatV1.15B25,2013-06-20 02:18:00,
2013-06-19 22:23:00,57.1,48.5,30.14,North,355,0.0,0.0,73,0.00,,,0.00,WeatherCatV1.15B25,2013-06-20 02:23:00,
2013-06-19 22:28:00,56.9,48.7,30.14,North,355,0.0,0.0,74,0.00,,,0.00,WeatherCatV1.15B25,2013-06-20 02:28:00,
2013-06-19 22:33:00,56.6,48.8,30.14,North,355,0.0,0.0,75,0.00,,,0.00,WeatherCatV1.15B25,2013-06-20 02:33:00,
2013-06-19 22:38:00,56.4,48.9,30.15,North,355,0.0,0.0,76,0.00,,,0.00,WeatherCatV1.15B25,2013-06-20 02:38:00,
2013-06-19 22:43:00,56.1,49.0,30.15,North,355,0.0,0.0,77,0.00,,,0.00,WeatherCatV1.15B25,2013-06-20 02:43:00,
2013-06-19 22:48:00,55.9,48.8,30.15,North,355,0.0,0.0,77,0.00,,,0.00,WeatherCatV1.15B25,2013-06-20 02:48:00,
2013-06-19 22:53:00,55.7,48.9,30.15,North,355,0.0,0.0,78,0.00,,,0.00,WeatherCatV1.15B25,2013-06-20 02:53:00,
2013-06-19 22:58:00,55.4,49.0,30.16,North,355,0.0,0.0,79,0.00,,,0.00,WeatherCatV1.15B25,2013-06-20 02:58:00,
2013-06-19 23:03:00,55.2,48.8,30.16,North,355,0.0,0.0,79,0.00,,,0.00,WeatherCatV1.15B25,2013-06-20 03:03:00,
2013-06-19 23:08:00,55.0,48.9,30.16,North,355,0.0,0.0,80,0.00,,,0.00,WeatherCatV1.15B25,2013-06-20 03:08:00,
2013-06-19 23:13:00,54.8,48.7,30.16,North,355,0.0,0.0,80,0.00,,,0.00,WeatherCatV1.15B25,2013-06-20 03:13:00,
2013-06-19 23:18:00,54.6,48.6,30.16,North,355,0.0,0.0,80,0.00,,,0.00,WeatherCatV1.15B25,2013-06-20 03:18:00,
2013-06-19 23:23:00,54.4,48.4,30.16,North,355,0.0,0.0,80,0.00,,,0.00,WeatherCatV1.15B25,2013-06-20 03:23:00,
2013-06-19 23:28:00,54.2,48.5,30.16,North,355,0.0,0.0,81,0.00,,,0.00,WeatherCatV1.15B25,2013-06-20 03:28:00,
2013-06-19 23:33:00,54.0,48.3,30.16,North,355,0.0,0.0,81,0.00,,,0.00,WeatherCatV1.15B25,2013-06-20 03:33:00,
2013-06-19 23:38:00,53.8,48.4,30.16,North,355,0.0,0.0,82,0.00,,,0.00,WeatherCatV1.15B25,2013-06-20 03:38:00,
2013-06-19 23:43:00,53.7,48.3,30.17,North,355,0.0,0.0,82,0.00,,,0.00,WeatherCatV1.15B25,2013-06-20 03:43:00,
2013-06-19 23:48:00,53.6,48.6,30.17,North,355,0.0,0.0,83,0.00,,,0.00,WeatherCatV1.15B25,2013-06-20 03:48:00,
2013-06-19 23:53:00,53.6,48.6,30.17,North,355,0.0,0.0,83,0.00,,,0.00,WeatherCatV1.15B25,2013-06-20 03:53:00,
2013-06-19 23:59:00,53.4,48.7,30.17,North,355,0.0,0.0,84,0.00,,,0.00,WeatherCatV1.15B25,2013-06-20 03:59:00,